createdAt,value
2022-09-04T00:00:08.797Z,4.53
2022-09-04T00:02:56.408Z,4.80
2022-09-04T00:05:35.450Z,4.67
2022-09-04T00:08:12.056Z,4.97
2022-09-04T00:10:39.030Z,4.60
2022-09-04T00:13:09.959Z,4.37
2022-09-04T00:15:39.535Z,4.57
2022-09-04T00:18:07.439Z,5.03
2022-09-04T00:20:48.033Z,4.97
2022-09-04T00:23:18.458Z,4.03
2022-09-04T00:25:45.197Z,4.23
2022-09-04T00:28:20.185Z,4.00
2022-09-04T00:30:50.445Z,4.13
2022-09-04T00:33:23.376Z,3.50
2022-09-04T00:35:52.029Z,4.00
2022-09-04T00:41:34.983Z,4.13
2022-09-04T00:44:13.619Z,4.20
2022-09-04T00:46:47.799Z,3.83
2022-09-04T00:49:20.610Z,3.93
2022-09-04T00:51:53.567Z,3.80
2022-09-04T00:54:41.591Z,4.37
2022-09-04T00:57:14.138Z,3.47
2022-09-04T00:59:50.075Z,4.10
2022-09-04T01:02:17.054Z,4.10
2022-09-04T01:04:44.103Z,3.87
2022-09-04T01:07:24.042Z,3.90
2022-09-04T01:09:56.595Z,3.77
2022-09-04T01:12:26.807Z,3.43
2022-09-04T01:15:15.489Z,3.50
2022-09-04T01:18:06.652Z,3.80
2022-09-04T01:20:51.792Z,3.60
2022-09-04T01:23:37.727Z,3.93
2022-09-04T01:26:07.681Z,3.60
2022-09-04T01:28:34.414Z,3.60
2022-09-04T01:31:04.153Z,4.27
2022-09-04T01:33:33.553Z,4.20
2022-09-04T01:36:00.635Z,4.50
2022-09-04T01:38:33.462Z,4.10
2022-09-04T01:41:18.721Z,3.87
2022-09-04T01:43:45.937Z,3.93
2022-09-04T01:46:25.459Z,4.30
2022-09-04T01:48:55.808Z,4.30
2022-09-04T01:51:33.411Z,4.20
2022-09-04T01:56:52.342Z,4.43
2022-09-04T01:59:53.705Z,4.10
2022-09-04T02:02:33.747Z,3.40
2022-09-04T02:05:08.327Z,4.10
2022-09-04T02:07:41.797Z,4.40
2022-09-04T02:10:12.595Z,3.90
2022-09-04T02:12:47.876Z,4.27
2022-09-04T02:15:23.933Z,4.50
2022-09-04T02:18:11.748Z,4.40
2022-09-04T02:20:39.597Z,4.80
2022-09-04T02:23:13.633Z,4.43
2022-09-04T02:25:43.461Z,5.10
2022-09-04T02:28:19.770Z,4.37
2022-09-04T02:30:57.217Z,4.00
2022-09-04T02:33:28.379Z,4.97
2022-09-04T02:35:59.407Z,4.13
2022-09-04T02:38:31.187Z,4.90
2022-09-04T02:41:07.116Z,4.50
2022-09-04T02:43:45.901Z,4.30
2022-09-04T02:46:24.733Z,4.43
2022-09-04T02:48:57.953Z,5.17
2022-09-04T02:51:42.780Z,4.07
2022-09-04T02:54:26.249Z,3.43
2022-09-04T02:56:53.042Z,4.30
2022-09-04T02:59:22.657Z,4.30
2022-09-04T03:01:53.740Z,4.53
2022-09-04T03:04:28.030Z,4.70
2022-09-04T03:07:12.445Z,4.40
2022-09-04T03:09:41.030Z,4.77
2022-09-04T03:15:11.187Z,4.73
2022-09-04T03:20:23.547Z,4.90
2022-09-04T03:22:52.354Z,4.73
2022-09-04T03:25:38.557Z,4.50
2022-09-04T03:28:05.652Z,5.63
2022-09-04T03:30:33.684Z,4.63
2022-09-04T03:33:03.867Z,4.00
2022-09-04T03:35:30.688Z,4.57
2022-09-04T03:37:57.379Z,4.00
2022-09-04T03:40:33.941Z,3.77
2022-09-04T03:43:24.044Z,3.53
2022-09-04T03:46:00.206Z,3.13
2022-09-04T03:48:27.141Z,3.17
2022-09-04T03:51:04.914Z,2.90
2022-09-04T03:53:37.775Z,2.97
2022-09-04T03:56:07.613Z,3.23
2022-09-04T03:58:38.564Z,3.20
2022-09-04T04:01:05.910Z,3.07
2022-09-04T04:03:38.500Z,3.67
2022-09-04T04:06:05.604Z,3.40
2022-09-04T04:08:51.483Z,3.37
2022-09-04T04:11:26.716Z,3.00
2022-09-04T04:14:05.774Z,3.00
2022-09-04T04:16:41.759Z,3.30
2022-09-04T04:19:26.729Z,2.93
2022-09-04T04:21:59.668Z,3.43
2022-09-04T04:24:45.056Z,2.90
2022-09-04T04:27:11.799Z,2.90
2022-09-04T04:29:41.200Z,2.80
2022-09-04T04:32:20.767Z,2.97
2022-09-04T04:34:54.213Z,3.00
2022-09-04T04:37:27.152Z,3.20
2022-09-04T04:40:30.257Z,3.10
2022-09-04T04:42:57.087Z,3.00
2022-09-04T04:45:50.934Z,3.10
2022-09-04T04:48:30.241Z,2.90
2022-09-04T04:51:05.355Z,3.10
2022-09-04T04:53:50.868Z,2.73
2022-09-04T04:56:24.999Z,3.00
2022-09-04T04:59:01.846Z,2.60
2022-09-04T05:01:47.565Z,3.17
2022-09-04T05:04:23.306Z,3.43
2022-09-04T05:06:55.020Z,2.90
2022-09-04T05:09:25.854Z,4.37
2022-09-04T05:11:56.789Z,4.20
2022-09-04T05:15:02.215Z,4.07
2022-09-04T05:17:51.310Z,4.80
2022-09-04T05:20:36.696Z,4.53
2022-09-04T05:23:15.474Z,4.20
2022-09-04T05:25:51.569Z,5.20
2022-09-04T05:28:37.425Z,5.43
2022-09-04T05:31:10.661Z,5.40
2022-09-04T05:33:57.321Z,5.23
2022-09-04T05:36:27.327Z,4.77
2022-09-04T05:38:57.429Z,4.53
2022-09-04T05:41:33.657Z,3.87
2022-09-04T05:44:19.148Z,3.70
2022-09-04T05:46:52.337Z,4.00
2022-09-04T05:49:28.337Z,3.27
2022-09-04T05:52:24.610Z,3.17
2022-09-04T05:55:01.486Z,3.20
2022-09-04T05:57:30.969Z,2.53
2022-09-04T06:00:07.257Z,2.10
2022-09-04T06:02:55.005Z,2.17
2022-09-04T06:05:24.676Z,1.70
2022-09-04T06:08:01.844Z,1.50
2022-09-04T06:10:31.769Z,1.63
2022-09-04T06:13:01.553Z,1.50
2022-09-04T06:15:33.924Z,1.17
2022-09-04T06:18:01.088Z,0.70
2022-09-04T06:20:27.786Z,0.60
2022-09-04T06:23:03.059Z,0.57
2022-09-04T06:25:34.477Z,0.60
2022-09-04T06:28:04.483Z,0.90
2022-09-04T06:30:34.851Z,0.70
2022-09-04T06:33:05.453Z,0.63
2022-09-04T06:35:51.019Z,0.90
2022-09-04T06:38:27.140Z,0.60
2022-09-04T06:40:56.877Z,0.60
2022-09-04T06:43:42.496Z,0.60
2022-09-04T06:46:09.467Z,0.70
2022-09-04T06:48:41.837Z,0.60
2022-09-04T06:51:24.041Z,0.57
2022-09-04T06:53:55.136Z,0.60
2022-09-04T06:56:40.965Z,0.50
2022-09-04T06:59:17.618Z,0.60
2022-09-04T07:01:44.493Z,0.40
2022-09-04T07:04:17.659Z,0.40
2022-09-04T07:06:47.389Z,0.70
2022-09-04T07:09:18.610Z,0.50
2022-09-04T07:11:58.052Z,0.90
2022-09-04T07:15:00.385Z,0.50
2022-09-04T07:17:32.012Z,0.60
2022-09-04T07:20:25.933Z,0.40
2022-09-04T07:23:11.500Z,0.60
2022-09-04T07:25:46.229Z,0.53
2022-09-04T07:28:19.951Z,0.70
2022-09-04T07:30:50.320Z,0.50
2022-09-04T07:33:20.611Z,0.50
2022-09-04T07:35:50.557Z,0.53
2022-09-04T07:38:36.266Z,0.60
2022-09-04T07:41:09.427Z,0.67
2022-09-04T07:43:42.722Z,0.63
2022-09-04T07:46:12.454Z,0.40
2022-09-04T07:48:56.200Z,0.60
2022-09-04T07:51:26.226Z,0.43
2022-09-04T07:53:59.408Z,0.40
2022-09-04T07:56:45.703Z,0.40
2022-09-04T07:59:27.679Z,0.33
2022-09-04T08:01:54.831Z,0.37
2022-09-04T08:04:24.625Z,0.43
2022-09-04T08:06:57.411Z,0.43
2022-09-04T08:09:44.535Z,0.53
2022-09-04T08:12:30.579Z,0.57
2022-09-04T08:15:16.232Z,0.50
2022-09-04T08:17:50.856Z,0.50
2022-09-04T08:20:28.916Z,0.47
2022-09-04T08:23:02.093Z,0.33
2022-09-04T08:25:30.365Z,0.33
2022-09-04T08:28:06.869Z,0.40
2022-09-04T08:30:40.281Z,0.50
2022-09-04T08:33:07.482Z,0.50
2022-09-04T08:35:35.434Z,0.50
2022-09-04T08:38:12.058Z,0.40
2022-09-04T08:41:02.033Z,0.40
2022-09-04T08:43:47.763Z,0.40
2022-09-04T08:46:14.674Z,0.50
2022-09-04T08:49:03.725Z,0.50
2022-09-04T08:51:34.318Z,0.47
2022-09-04T08:54:20.677Z,0.40
2022-09-04T08:56:51.235Z,0.60
2022-09-04T08:59:24.067Z,0.50
2022-09-04T09:01:58.430Z,0.60
2022-09-04T09:04:25.876Z,0.57
2022-09-04T09:07:13.740Z,0.70
2022-09-04T09:09:43.785Z,0.50
2022-09-04T09:12:17.072Z,0.45
2022-09-04T09:14:59.887Z,0.43
2022-09-04T09:18:02.613Z,0.40
2022-09-04T09:20:32.362Z,0.50
2022-09-04T09:23:19.866Z,0.50
2022-09-04T09:25:49.292Z,0.40
2022-09-04T09:28:28.499Z,0.33
2022-09-04T09:31:14.121Z,0.40
2022-09-04T09:33:41.018Z,0.50
2022-09-04T09:36:07.895Z,0.57
2022-09-04T09:38:46.313Z,0.47
2022-09-04T09:41:28.681Z,0.60
2022-09-04T09:43:56.753Z,0.40
2022-09-04T09:46:42.019Z,0.40
2022-09-04T09:49:26.965Z,0.50
2022-09-04T09:52:03.018Z,0.50
2022-09-04T09:54:49.297Z,0.60
2022-09-04T09:57:21.961Z,0.40
2022-09-04T10:00:08.352Z,0.50
2022-09-04T10:02:51.065Z,0.60
2022-09-04T10:05:39.858Z,0.50
2022-09-04T10:08:15.490Z,0.40
2022-09-04T10:11:08.005Z,0.40
2022-09-04T10:13:36.392Z,0.60
2022-09-04T10:16:04.287Z,0.70
2022-09-04T10:18:49.733Z,0.57
2022-09-04T10:21:16.798Z,0.60
2022-09-04T10:24:10.393Z,0.30
2022-09-04T10:26:59.107Z,0.70
2022-09-04T10:29:45.185Z,0.40
2022-09-04T10:32:26.785Z,0.47
2022-09-04T10:35:09.587Z,0.40
2022-09-04T10:37:39.581Z,0.40
2022-09-04T10:40:28.346Z,0.50
2022-09-04T10:43:01.449Z,0.40
2022-09-04T10:45:40.519Z,0.40
2022-09-04T10:48:07.555Z,0.70
2022-09-04T10:50:42.021Z,0.40
2022-09-04T10:53:09.110Z,0.40
2022-09-04T10:55:36.472Z,0.50
2022-09-04T10:58:10.730Z,0.47
2022-09-04T11:00:50.183Z,0.40
2022-09-04T11:03:30.422Z,0.53
2022-09-04T11:06:16.242Z,0.40
2022-09-04T11:09:02.022Z,0.50
2022-09-04T11:11:28.918Z,0.40
2022-09-04T11:14:14.396Z,0.50
2022-09-04T11:16:57.308Z,0.50
2022-09-04T11:19:43.541Z,0.40
2022-09-04T11:22:12.784Z,0.30
2022-09-04T11:25:01.511Z,0.40
2022-09-04T11:27:29.373Z,0.33
2022-09-04T11:29:59.377Z,0.50
2022-09-04T11:32:26.278Z,0.53
2022-09-04T11:35:13.758Z,0.40
2022-09-04T11:37:57.795Z,0.40
2022-09-04T11:40:24.879Z,0.40
2022-09-04T11:43:03.997Z,0.40
2022-09-04T11:45:37.708Z,0.57
2022-09-04T11:48:10.544Z,0.40
2022-09-04T11:50:40.335Z,0.37
2022-09-04T11:53:19.261Z,0.40
2022-09-04T11:56:05.199Z,0.40
2022-09-04T11:58:47.467Z,0.60
2022-09-04T12:01:16.422Z,0.50
2022-09-04T12:03:53.277Z,0.60
2022-09-04T12:06:37.221Z,0.47
2022-09-04T12:09:22.793Z,0.50
2022-09-04T12:11:58.029Z,0.40
2022-09-04T12:14:25.888Z,0.33
2022-09-04T12:16:57.485Z,0.40
2022-09-04T12:19:43.277Z,0.50
2022-09-04T12:22:11.405Z,0.30
2022-09-04T12:24:38.447Z,0.47
2022-09-04T12:27:17.515Z,0.33
2022-09-04T12:29:47.245Z,0.37
2022-09-04T12:32:26.280Z,0.50
2022-09-04T12:35:08.377Z,0.73
2022-09-04T12:37:54.854Z,0.40
2022-09-04T12:40:22.146Z,0.53
2022-09-04T12:42:52.501Z,0.50
2022-09-04T12:45:31.759Z,0.40
2022-09-04T12:48:11.571Z,0.40
2022-09-04T12:50:45.554Z,0.37
2022-09-04T12:53:25.801Z,0.73
2022-09-04T12:56:03.225Z,0.50
2022-09-04T12:58:42.982Z,0.50
2022-09-04T13:01:16.236Z,0.50
2022-09-04T13:03:46.068Z,0.30
2022-09-04T13:06:12.828Z,0.30
2022-09-04T13:08:40.226Z,0.50
2022-09-04T13:11:07.077Z,0.80
2022-09-04T13:13:56.866Z,0.50
2022-09-04T13:16:27.577Z,0.40
2022-09-04T13:19:00.357Z,0.37
2022-09-04T13:21:46.550Z,0.70
2022-09-04T13:24:16.458Z,0.50
2022-09-04T13:26:52.546Z,0.60
2022-09-04T13:29:45.551Z,0.43
2022-09-04T13:32:35.883Z,0.30
2022-09-04T13:35:03.989Z,0.43
2022-09-04T13:37:37.236Z,0.40
2022-09-04T13:40:04.345Z,0.30
2022-09-04T13:42:34.448Z,0.30
2022-09-04T13:45:02.063Z,0.30
2022-09-04T13:47:39.805Z,0.40
2022-09-04T13:50:18.779Z,0.30
2022-09-04T13:53:11.189Z,0.50
2022-09-04T13:55:38.873Z,0.30
2022-09-04T13:58:20.071Z,0.33
2022-09-04T14:00:47.327Z,0.40
2022-09-04T14:03:16.875Z,0.37
2022-09-04T14:05:44.745Z,0.30
2022-09-04T14:08:14.961Z,0.40
2022-09-04T14:13:52.254Z,0.20
2022-09-04T14:16:24.056Z,0.63
2022-09-04T14:19:09.997Z,0.40
2022-09-04T14:21:47.413Z,0.40
2022-09-04T14:24:20.787Z,0.40
2022-09-04T14:26:58.296Z,0.30
2022-09-04T14:29:29.284Z,0.30
2022-09-04T14:32:04.755Z,0.23
2022-09-04T14:34:36.295Z,0.30
2022-09-04T14:37:10.079Z,0.43
2022-09-04T14:39:52.619Z,0.30
2022-09-04T14:42:42.783Z,0.40
2022-09-04T14:45:30.098Z,0.27
2022-09-04T14:47:58.149Z,0.53
2022-09-04T14:50:31.102Z,0.50
2022-09-04T14:52:59.513Z,0.60
2022-09-04T14:55:27.781Z,0.47
2022-09-04T14:58:24.472Z,0.37
2022-09-04T15:01:00.716Z,0.47
2022-09-04T15:03:46.391Z,0.50
2022-09-04T15:06:16.375Z,0.40
2022-09-04T15:08:44.404Z,0.40
2022-09-04T15:11:13.367Z,0.40
2022-09-04T15:13:53.034Z,0.50
2022-09-04T15:16:22.514Z,0.50
2022-09-04T15:18:56.199Z,0.60
2022-09-04T15:21:43.831Z,0.40
2022-09-04T15:24:19.668Z,0.40
2022-09-04T15:26:51.566Z,0.50
2022-09-04T15:29:20.563Z,0.30
2022-09-04T15:31:47.481Z,0.70
2022-09-04T15:34:21.682Z,0.60
2022-09-04T15:36:48.893Z,0.50
2022-09-04T15:39:24.358Z,0.40
2022-09-04T15:42:11.212Z,0.47
2022-09-04T15:44:45.013Z,0.40
2022-09-04T15:47:17.212Z,0.30
2022-09-04T15:49:48.983Z,0.43
2022-09-04T15:52:29.367Z,0.40
2022-09-04T15:54:59.205Z,0.67
2022-09-04T15:57:36.131Z,0.73
2022-09-04T16:00:05.230Z,0.50
2022-09-04T16:02:50.976Z,0.40
2022-09-04T16:05:23.570Z,0.47
2022-09-04T16:08:03.705Z,0.43
2022-09-04T16:10:49.278Z,0.40
2022-09-04T16:13:29.212Z,0.50
2022-09-04T16:16:04.315Z,0.53
2022-09-04T16:18:35.360Z,0.40
2022-09-04T16:21:03.100Z,0.53
2022-09-04T16:23:31.860Z,0.43
2022-09-04T16:25:59.976Z,0.40
2022-09-04T16:28:32.277Z,0.60
2022-09-04T16:31:00.180Z,0.50
2022-09-04T16:33:28.671Z,0.53
2022-09-04T16:36:08.892Z,0.40
2022-09-04T16:38:47.663Z,0.43
2022-09-04T16:41:14.619Z,0.40
2022-09-04T16:43:41.392Z,0.50
2022-09-04T16:46:15.067Z,0.80
2022-09-04T16:49:02.265Z,0.70
2022-09-04T16:51:40.027Z,0.90
2022-09-04T16:54:08.588Z,1.00
2022-09-04T16:56:37.183Z,2.00
2022-09-04T16:59:31.224Z,1.03
2022-09-04T17:02:02.189Z,1.10
2022-09-04T17:04:33.269Z,1.00
2022-09-04T17:07:09.097Z,1.30
2022-09-04T17:09:42.398Z,1.17
2022-09-04T17:12:24.377Z,1.70
2022-09-04T17:14:52.788Z,1.10
2022-09-04T17:17:30.942Z,0.77
2022-09-04T17:22:26.344Z,1.00
2022-09-04T17:29:02.088Z,0.70
2022-09-04T17:29:15.426Z,1.00
2022-09-04T17:29:37.238Z,0.90
2022-09-04T17:33:46.122Z,1.20
2022-09-04T17:40:32.780Z,1.50
2022-09-04T17:40:55.608Z,1.43
2022-09-04T17:41:34.653Z,1.30
2022-09-04T17:44:02.238Z,1.30
2022-09-04T17:46:36.966Z,1.10
2022-09-04T17:49:34.658Z,1.50
2022-09-04T17:52:08.978Z,1.53
2022-09-04T17:54:49.072Z,1.70
2022-09-04T17:57:16.375Z,1.10
2022-09-04T17:59:53.638Z,1.20
2022-09-04T18:02:27.951Z,1.07
2022-09-04T18:05:00.870Z,1.17
2022-09-04T18:08:08.326Z,1.10
2022-09-04T18:10:34.307Z,1.50
2022-09-04T18:13:27.041Z,1.17
2022-09-04T18:16:26.263Z,1.87
2022-09-04T18:18:53.476Z,1.73
2022-09-04T18:21:26.999Z,2.10
2022-09-04T18:23:57.133Z,2.20
2022-09-04T18:26:59.856Z,1.67
2022-09-04T18:34:12.537Z,2.20
2022-09-04T18:37:21.338Z,2.43
2022-09-04T18:37:25.654Z,3.57
2022-09-04T18:38:44.281Z,3.53
2022-09-04T18:46:39.938Z,3.23
2022-09-04T18:50:25.014Z,1.67
2022-09-04T18:50:34.793Z,2.73
2022-09-04T18:51:14.653Z,2.70
2022-09-04T18:53:43.464Z,2.50
2022-09-04T18:56:27.253Z,3.33
2022-09-04T18:58:54.133Z,3.30
2022-09-04T19:01:27.325Z,3.70
2022-09-04T19:03:59.938Z,4.10
2022-09-04T19:06:29.675Z,4.53
2022-09-04T19:08:57.533Z,4.53
2022-09-04T19:11:30.341Z,5.27
2022-09-04T19:14:10.118Z,5.00
2022-09-04T19:16:42.250Z,4.07
2022-09-04T19:19:31.509Z,2.40
2022-09-04T19:22:03.085Z,2.87
2022-09-04T19:24:34.314Z,2.67
2022-09-04T19:27:27.649Z,2.57
2022-09-04T19:30:05.195Z,2.50
2022-09-04T19:32:53.137Z,3.67
2022-09-04T19:35:20.992Z,3.50
2022-09-04T19:45:07.061Z,4.17
2022-09-04T19:46:14.249Z,2.40
2022-09-04T19:46:29.465Z,2.67
2022-09-04T19:51:16.833Z,2.83
2022-09-04T19:53:23.932Z,2.20
2022-09-04T19:54:44.665Z,2.73
2022-09-04T19:57:33.708Z,2.40
2022-09-04T20:00:34.336Z,1.60
2022-09-04T20:02:53.361Z,2.53
2022-09-04T20:05:30.030Z,1.80
2022-09-04T20:07:56.973Z,1.60
2022-09-04T20:10:32.174Z,1.70
2022-09-04T20:13:03.306Z,1.77
2022-09-04T20:15:31.661Z,2.00
2022-09-04T20:18:17.413Z,2.50
2022-09-04T20:20:56.314Z,2.57
2022-09-04T20:23:44.139Z,2.93
2022-09-04T20:26:13.624Z,2.73
2022-09-04T20:29:10.413Z,4.00
2022-09-04T20:31:49.438Z,3.13
2022-09-04T20:34:27.210Z,3.50
2022-09-04T20:37:19.350Z,3.50
2022-09-04T20:40:10.410Z,2.00
2022-09-04T20:42:46.560Z,3.30
2022-09-04T20:47:59.598Z,2.70
2022-09-04T20:52:57.188Z,2.90
2022-09-04T20:53:05.492Z,3.40
2022-09-04T20:53:59.610Z,3.00
2022-09-04T20:59:32.197Z,2.40
2022-09-04T21:03:12.720Z,3.10
2022-09-04T21:03:24.845Z,2.50
2022-09-04T21:05:23.788Z,2.07
2022-09-04T21:08:00.551Z,2.00
2022-09-04T21:10:37.806Z,2.03
2022-09-04T21:13:13.271Z,2.07
2022-09-04T21:15:48.244Z,2.13
2022-09-04T21:18:18.384Z,2.73
2022-09-04T21:20:59.510Z,2.27
2022-09-04T21:23:46.345Z,3.10
2022-09-04T21:26:33.845Z,4.50
2022-09-04T21:29:16.272Z,4.63
2022-09-04T21:31:47.896Z,5.00
2022-09-04T21:34:27.101Z,5.87
2022-09-04T21:36:57.930Z,4.40
2022-09-04T21:39:43.605Z,5.10
2022-09-04T21:42:16.949Z,5.17
2022-09-04T21:44:59.434Z,5.43
2022-09-04T21:47:35.162Z,5.47
2022-09-04T21:50:09.542Z,4.80
2022-09-04T21:52:55.913Z,4.90
2022-09-04T21:57:51.813Z,4.90
2022-09-04T22:02:35.359Z,4.87
2022-09-04T22:02:42.744Z,5.30
2022-09-04T22:04:01.575Z,5.07
2022-09-04T22:09:35.726Z,5.37
2022-09-04T22:13:38.394Z,6.13
2022-09-04T22:13:40.088Z,6.30
2022-09-04T22:15:24.977Z,6.40
2022-09-04T22:18:02.127Z,6.53
2022-09-04T22:20:44.493Z,6.33
2022-09-04T22:23:30.131Z,6.30
2022-09-04T22:26:23.057Z,6.50
2022-09-04T22:29:08.461Z,5.70
2022-09-04T22:31:55.515Z,6.10
2022-09-04T22:34:28.130Z,6.87
2022-09-04T22:37:04.692Z,6.40
2022-09-04T22:39:43.747Z,5.73
2022-09-04T22:42:10.473Z,5.63
2022-09-04T22:44:56.332Z,6.00
2022-09-04T22:47:39.274Z,5.97
2022-09-04T22:50:11.245Z,5.93
2022-09-04T22:52:54.786Z,5.80
2022-09-04T22:55:40.242Z,5.10
2022-09-04T22:58:25.370Z,5.67
2022-09-04T23:01:15.975Z,5.40
2022-09-04T23:03:57.928Z,5.70
2022-09-04T23:08:53.586Z,5.73
2022-09-04T23:13:49.258Z,4.97
2022-09-04T23:13:56.568Z,5.00
2022-09-04T23:15:49.135Z,5.00
2022-09-04T23:19:25.111Z,4.77
2022-09-04T23:26:35.819Z,4.07
2022-09-04T23:26:47.727Z,4.40
2022-09-04T23:27:42.582Z,4.30
2022-09-04T23:30:27.972Z,3.90
2022-09-04T23:33:14.757Z,4.00
2022-09-04T23:36:09.676Z,4.13
2022-09-04T23:38:48.755Z,4.30
2022-09-04T23:41:25.485Z,3.83
2022-09-04T23:44:07.586Z,3.97
2022-09-04T23:46:37.532Z,3.77
2022-09-04T23:49:24.002Z,4.17
2022-09-04T23:51:56.675Z,4.00
2022-09-04T23:54:35.503Z,3.53
2022-09-04T23:57:11.152Z,3.63
